Time;durP1;ratioP1;P1;durP2;ratioP2;P2;SDS_P1;SDS_P2;PMS_P1;PMS_P2;Temp;Humidity;BMP_temperature;BMP_pressure;BME280_temperature;BME280_humidity;BME280_pressure;Samples;Min_cycle;Max_cycle;Signal;HPM_P1;HPM_P2
2022/09/15 00:00:45;;;;;;;5.80;3.05;;;14.40;99.90;;;;;;5081038;28;20487;-74
2022/09/15 00:03:11;;;;;;;4.80;2.45;;;15.00;99.90;;;;;;5086301;28;20113;-74
2022/09/15 00:05:37;;;;;;;5.43;2.40;;;14.50;99.90;;;;;;5087189;28;20044;-74
2022/09/15 00:08:02;;;;;;;7.10;2.50;;;14.80;99.90;;;;;;5120322;28;20329;-75
2022/09/15 00:10:28;;;;;;;3.47;1.90;;;14.50;99.90;;;;;;5088092;28;20385;-73
2022/09/15 00:12:54;;;;;;;5.95;1.88;;;14.50;99.90;;;;;;5091021;28;20089;-74
2022/09/15 00:15:21;;;;;;;6.15;2.08;;;14.80;99.90;;;;;;5090166;28;20096;-75
2022/09/15 00:17:49;;;;;;;4.80;1.50;;;15.70;99.90;;;;;;5088486;28;20050;-74
2022/09/15 00:20:15;;;;;;;5.38;1.50;;;14.60;99.90;;;;;;5090879;28;20029;-74
2022/09/15 00:22:41;;;;;;;6.15;1.25;;;14.60;99.90;;;;;;5072301;28;20040;-74
2022/09/15 00:25:07;;;;;;;2.63;1.00;;;14.60;99.90;;;;;;5090365;28;20107;-73
2022/09/15 00:27:33;;;;;;;6.18;1.23;;;14.60;99.90;;;;;;5090780;28;20352;-73
2022/09/15 00:29:59;;;;;;;7.65;1.48;;;14.70;99.90;;;;;;5072057;28;20047;-74
2022/09/15 00:32:25;;;;;;;6.13;0.82;;;14.70;99.90;;;;;;5090010;28;20046;-73
2022/09/15 00:34:50;;;;;;;3.95;1.10;;;14.80;99.90;;;;;;5089738;28;20071;-74
2022/09/15 00:37:17;;;;;;;7.15;1.00;;;14.70;99.90;;;;;;5089155;28;20448;-74
2022/09/15 00:39:42;;;;;;;4.22;0.93;;;14.70;99.90;;;;;;5071237;28;20483;-75
2022/09/15 00:42:17;;;;;;;5.35;1.08;;;14.70;99.90;;;;;;5090316;28;20105;-74
2022/09/15 00:44:54;;;;;;;3.95;0.75;;;14.80;99.90;;;;;;5088168;28;20086;-74
2022/09/15 00:47:26;;;;;;;8.55;1.58;;;14.80;99.90;;;;;;5089475;28;20447;-73
2022/09/15 00:49:56;;;;;;;5.18;1.00;;;14.90;99.90;;;;;;5089954;28;20453;-73
2022/09/15 00:53:02;;;;;;;4.70;1.05;;;15.60;99.90;;;;;;5089040;28;20089;-74
2022/09/15 00:55:36;;;;;;;5.97;1.58;;;14.70;99.90;;;;;;5083225;28;20123;-74
2022/09/15 00:58:13;;;;;;;2.42;0.98;;;14.70;99.90;;;;;;5087216;28;20048;-73
2022/09/15 01:00:46;;;;;;;4.30;1.25;;;14.70;99.90;;;;;;5082693;28;20024;-74
2022/09/15 01:03:12;;;;;;;4.05;1.17;;;14.70;99.90;;;;;;5071750;28;20521;-74
2022/09/15 01:05:46;;;;;;;5.13;1.38;;;14.70;99.90;;;;;;5089106;28;20039;-74
2022/09/15 01:08:28;;;;;;;5.85;1.90;;;14.70;99.90;;;;;;5088580;28;20044;-74
2022/09/15 01:10:54;;;;;;;7.35;1.55;;;14.70;99.90;;;;;;5088443;28;20043;-74
2022/09/15 01:13:20;;;;;;;6.82;1.85;;;15.30;99.90;;;;;;5071587;28;20116;-74
2022/09/15 01:16:04;;;;;;;3.90;2.22;;;14.70;99.90;;;;;;5089517;28;20491;-74
2022/09/15 01:19:03;;;;;;;5.93;2.03;;;14.60;99.90;;;;;;5089813;28;20573;-74
2022/09/15 01:21:48;;;;;;;5.07;1.98;;;14.60;99.90;;;;;;5088411;28;20063;-75
2022/09/15 01:24:24;;;;;;;7.32;2.08;;;14.90;99.90;;;;;;5083585;28;20036;-73
2022/09/15 01:26:59;;;;;;;10.32;2.80;;;14.60;99.90;;;;;;5088095;28;20048;-73
2022/09/15 01:29:52;;;;;;;6.85;2.60;;;14.50;99.90;;;;;;5088277;28;20506;-73
2022/09/15 01:35:35;;;;;;;5.25;2.10;;;14.50;99.90;;;;;;5083747;28;20495;-75
2022/09/15 01:38:23;;;;;;;5.97;2.58;;;14.50;99.90;;;;;;5084885;28;20028;-73
2022/09/15 01:40:58;;;;;;;8.55;3.13;;;14.50;99.90;;;;;;5121345;27;20036;-75
2022/09/15 01:43:26;;;;;;;7.10;2.58;;;14.50;99.90;;;;;;5089081;28;20509;-74
2022/09/15 01:45:52;;;;;;;8.88;2.88;;;14.50;99.90;;;;;;5088219;28;20043;-74
2022/09/15 01:48:22;;;;;;;7.28;2.47;;;14.90;99.90;;;;;;5087193;28;20510;-75
2022/09/15 01:50:52;;;;;;;5.10;2.65;;;14.50;99.90;;;;;;5087866;28;20079;-74
2022/09/15 01:53:20;;;;;;;6.60;2.15;;;14.50;99.90;;;;;;5088972;28;20040;-74
2022/09/15 01:56:06;;;;;;;5.55;2.78;;;14.50;99.90;;;;;;5086982;28;20059;-74
2022/09/15 01:58:33;;;;;;;7.72;2.13;;;14.50;99.90;;;;;;5087573;28;20070;-73
2022/09/15 02:01:28;;;;;;;5.45;1.45;;;14.50;99.90;;;;;;5081786;28;20061;-74
2022/09/15 02:04:03;;;;;;;7.88;1.50;;;14.50;99.90;;;;;;5069211;28;20044;-73
2022/09/15 02:06:55;;;;;;;9.60;1.05;;;14.50;99.90;;;;;;5087688;28;20422;-74
2022/09/15 02:09:49;;;;;;;3.35;0.70;;;14.50;99.90;;;;;;5078400;28;20040;-74
2022/09/15 02:12:32;;;;;;;8.93;1.47;;;14.50;99.90;;;;;;5083954;28;20520;-73
2022/09/15 02:15:06;;;;;;;6.63;1.48;;;14.50;99.90;;;;;;5088992;28;20074;-73
2022/09/15 02:17:37;;;;;;;5.88;1.17;;;14.50;99.90;;;;;;5069631;28;20040;-75
2022/09/15 02:20:31;;;;;;;7.63;1.05;;;14.50;99.90;;;;;;5062461;28;20040;-74
2022/09/15 02:23:07;;;;;;;8.47;1.30;;;14.50;99.90;;;;;;5087729;28;20056;-74
2022/09/15 02:25:42;;;;;;;4.90;0.82;;;14.50;99.90;;;;;;5087364;28;20274;-75
2022/09/15 02:28:10;;;;;;;8.60;1.20;;;14.50;99.90;;;;;;5079562;28;20071;-75
2022/09/15 02:30:40;;;;;;;8.30;1.08;;;14.50;99.90;;;;;;5087644;28;20115;-74
2022/09/15 02:33:10;;;;;;;4.97;0.80;;;14.50;99.90;;;;;;5086115;28;20191;-73
2022/09/15 02:35:38;;;;;;;3.28;0.30;;;14.50;99.90;;;;;;5088557;28;20134;-72
2022/09/15 02:38:06;;;;;;;4.68;0.60;;;14.40;99.90;;;;;;5085395;28;20071;-74
2022/09/15 02:40:32;;;;;;;3.05;0.50;;;14.50;99.90;;;;;;5086560;28;20044;-73
2022/09/15 02:43:04;;;;;;;7.80;0.73;;;14.40;99.90;;;;;;5069646;28;20118;-74
2022/09/15 02:45:30;;;;;;;7.18;0.60;;;14.50;99.90;;;;;;5086227;28;20044;-74
2022/09/15 02:47:58;;;;;;;5.82;0.80;;;14.50;99.90;;;;;;5088089;28;20119;-75
2022/09/15 02:50:25;;;;;;;5.93;0.93;;;14.50;99.90;;;;;;5088347;28;20040;-73
2022/09/15 02:52:54;;;;;;;6.65;1.15;;;14.50;99.90;;;;;;5069796;28;20078;-74
2022/09/15 02:55:21;;;;;;;2.97;0.63;;;14.50;99.90;;;;;;5080817;28;20340;-74
2022/09/15 02:57:47;;;;;;;3.20;0.30;;;15.50;99.90;;;;;;5088164;28;20548;-74
2022/09/15 03:00:14;;;;;;;6.65;0.52;;;14.50;99.90;;;;;;5079705;28;20036;-75
2022/09/15 03:02:44;;;;;;;8.93;0.82;;;14.50;99.90;;;;;;5087524;28;20048;-73
2022/09/15 03:05:12;;;;;;;6.97;1.05;;;14.50;99.90;;;;;;5087247;28;20047;-74
2022/09/15 03:07:38;;;;;;;5.97;0.98;;;14.50;99.90;;;;;;5086392;28;20036;-73
2022/09/15 03:10:05;;;;;;;8.20;0.98;;;15.60;99.90;;;;;;5086340;28;20043;-74
2022/09/15 03:12:38;;;;;;;5.10;0.85;;;14.50;99.90;;;;;;5083933;28;20036;-73
2022/09/15 03:15:06;;;;;;;3.47;0.60;;;15.20;99.90;;;;;;5088213;28;20039;-74
2022/09/15 03:17:36;;;;;;;5.35;0.70;;;14.40;99.90;;;;;;5085934;28;20044;-73
2022/09/15 03:20:04;;;;;;;3.92;1.15;;;14.60;99.90;;;;;;5086029;28;20055;-75
2022/09/15 03:22:30;;;;;;;10.38;0.80;;;14.40;99.90;;;;;;5086316;28;20398;-74
2022/09/15 03:24:56;;;;;;;5.60;0.95;;;14.40;99.90;;;;;;5086739;28;20062;-73
2022/09/15 03:27:22;;;;;;;6.97;0.93;;;14.40;99.90;;;;;;5087170;28;20111;-75
2022/09/15 03:29:47;;;;;;;4.82;0.90;;;14.40;99.90;;;;;;5086068;28;20046;-73
2022/09/15 03:32:13;;;;;;;4.25;0.47;;;14.40;99.90;;;;;;5086156;28;20044;-73
2022/09/15 03:34:38;;;;;;;7.25;0.70;;;14.70;99.90;;;;;;5069580;28;20044;-72
2022/09/15 03:37:04;;;;;;;6.22;0.40;;;15.10;99.90;;;;;;5088249;28;20028;-74
2022/09/15 03:39:30;;;;;;;2.92;0.77;;;15.80;99.90;;;;;;5069057;28;20036;-73
2022/09/15 03:41:56;;;;;;;5.25;0.68;;;14.40;99.90;;;;;;5087611;28;20534;-73
2022/09/15 03:44:22;;;;;;;8.80;1.02;;;14.60;99.90;;;;;;5086797;28;20044;-73
2022/09/15 03:46:47;;;;;;;6.65;0.75;;;14.40;99.90;;;;;;5091346;28;20043;-74
2022/09/15 03:49:13;;;;;;;8.23;1.10;;;14.40;99.90;;;;;;5091695;28;20044;-74
2022/09/15 03:51:39;;;;;;;7.43;0.90;;;14.30;99.90;;;;;;5091471;28;20082;-74
2022/09/15 03:54:04;;;;;;;9.82;1.92;;;14.30;99.90;;;;;;5091148;28;20036;-74
2022/09/15 03:56:31;;;;;;;2.63;0.52;;;14.30;99.90;;;;;;5092029;28;20126;-74
2022/09/15 03:58:58;;;;;;;7.68;0.95;;;14.30;99.90;;;;;;5088290;28;20056;-73
2022/09/15 04:01:24;;;;;;;7.03;0.85;;;14.30;99.90;;;;;;5084824;28;20142;-73
2022/09/15 04:03:50;;;;;;;5.70;0.63;;;14.30;99.90;;;;;;5090987;28;20047;-73
2022/09/15 04:06:17;;;;;;;5.15;0.77;;;14.30;99.90;;;;;;5084366;28;20123;-73
2022/09/15 04:08:43;;;;;;;4.35;0.88;;;14.40;99.90;;;;;;5080797;28;20608;-75
2022/09/15 04:11:11;;;;;;;6.25;1.52;;;14.30;99.90;;;;;;5083291;28;20036;-75
2022/09/15 04:13:38;;;;;;;8.63;1.67;;;14.30;99.90;;;;;;5091423;28;20032;-74
2022/09/15 04:16:09;;;;;;;6.80;1.08;;;14.20;99.90;;;;;;5091159;28;20105;-74
2022/09/15 04:18:35;;;;;;;8.82;1.00;;;14.20;99.90;;;;;;5072662;28;20047;-74
2022/09/15 04:21:07;;;;;;;7.47;0.90;;;14.20;99.90;;;;;;5089202;28;20048;-73
2022/09/15 04:23:33;;;;;;;10.43;1.33;;;14.50;99.90;;;;;;5090943;28;20040;-73
2022/09/15 04:26:02;;;;;;;3.88;0.60;;;14.10;99.90;;;;;;5089686;28;20039;-74
2022/09/15 04:28:32;;;;;;;7.32;1.17;;;14.10;99.90;;;;;;5090181;28;20050;-73
2022/09/15 04:31:06;;;;;;;7.10;1.13;;;14.10;99.90;;;;;;5090698;28;20550;-74
2022/09/15 04:33:32;;;;;;;4.88;0.70;;;14.40;99.90;;;;;;5073159;28;20048;-73
2022/09/15 04:36:03;;;;;;;8.63;1.02;;;14.00;99.90;;;;;;5088616;28;20051;-73
2022/09/15 04:38:29;;;;;;;7.75;1.75;;;14.00;99.90;;;;;;5089475;28;20035;-74
2022/09/15 04:40:55;;;;;;;11.35;0.77;;;15.00;99.90;;;;;;5090569;28;20047;-73
2022/09/15 04:43:21;;;;;;;7.47;1.00;;;14.00;99.90;;;;;;5090512;28;20036;-74
2022/09/15 04:45:47;;;;;;;4.82;0.80;;;14.00;99.90;;;;;;5090645;28;20078;-73
2022/09/15 04:48:13;;;;;;;6.15;1.13;;;14.00;99.90;;;;;;5088931;28;20047;-75
2022/09/15 04:50:39;;;;;;;4.53;0.93;;;14.00;99.90;;;;;;5088695;28;20527;-72
2022/09/15 04:53:05;;;;;;;5.10;0.82;;;14.00;99.90;;;;;;5090525;28;20048;-75
2022/09/15 04:55:35;;;;;;;8.90;1.25;;;14.00;99.90;;;;;;5090630;28;20115;-73
2022/09/15 04:58:01;;;;;;;7.05;1.40;;;14.00;99.90;;;;;;5088596;28;20517;-74
2022/09/15 05:00:28;;;;;;;7.35;0.90;;;14.00;99.90;;;;;;5088388;28;20036;-74
2022/09/15 05:02:54;;;;;;;10.13;1.65;;;14.10;99.90;;;;;;5085718;28;20055;-75
2022/09/15 05:05:20;;;;;;;8.20;1.02;;;14.00;99.90;;;;;;5090549;28;20402;-74
2022/09/15 05:07:49;;;;;;;5.47;1.05;;;14.00;99.90;;;;;;5089982;28;20131;-74
2022/09/15 05:10:15;;;;;;;6.15;1.13;;;14.20;99.90;;;;;;5081201;28;20350;-74
2022/09/15 05:12:40;;;;;;;8.32;0.90;;;14.10;99.90;;;;;;5088904;28;20415;-74
2022/09/15 05:15:06;;;;;;;5.95;1.10;;;13.90;99.90;;;;;;5089267;28;20048;-73
2022/09/15 05:17:33;;;;;;;7.97;0.77;;;13.90;99.90;;;;;;5088301;28;20387;-74
2022/09/15 05:19:59;;;;;;;8.85;1.63;;;13.90;99.90;;;;;;5088481;28;20048;-75
2022/09/15 05:22:28;;;;;;;6.63;1.20;;;13.90;99.90;;;;;;5071869;28;20047;-72
2022/09/15 05:24:54;;;;;;;8.75;1.15;;;13.80;99.90;;;;;;5089191;28;20040;-73
2022/09/15 05:27:19;;;;;;;8.38;1.20;;;13.80;99.90;;;;;;5090634;28;20383;-74
2022/09/15 05:29:45;;;;;;;5.00;0.82;;;13.80;99.90;;;;;;5089435;28;20043;-73
2022/09/15 05:32:10;;;;;;;8.30;0.85;;;13.80;99.90;;;;;;5087484;28;20052;-73
2022/09/15 05:34:36;;;;;;;5.13;1.13;;;13.80;99.90;;;;;;5088270;28;20055;-74
2022/09/15 05:37:02;;;;;;;7.63;1.13;;;13.70;99.90;;;;;;5089358;28;20101;-74
2022/09/15 05:39:28;;;;;;;6.90;0.98;;;13.70;99.90;;;;;;5089120;28;20347;-73
2022/09/15 05:41:54;;;;;;;4.25;0.88;;;14.40;99.90;;;;;;5088200;28;20458;-73
2022/09/15 05:44:22;;;;;;;9.45;1.08;;;13.70;99.90;;;;;;5088320;28;20051;-73
2022/09/15 05:46:48;;;;;;;6.55;0.98;;;13.60;99.90;;;;;;5087639;28;20543;-73
2022/09/15 05:49:13;;;;;;;5.97;1.00;;;13.60;99.90;;;;;;5089480;28;20122;-74
2022/09/15 05:51:39;;;;;;;6.22;1.20;;;13.60;99.90;;;;;;5089105;28;20036;-74
2022/09/15 05:54:05;;;;;;;9.38;1.13;;;14.50;99.90;;;;;;5121474;27;20076;-76
2022/09/15 05:56:31;;;;;;;6.00;0.93;;;13.60;99.90;;;;;;5088309;28;20036;-72
2022/09/15 05:58:56;;;;;;;8.38;1.20;;;13.60;99.90;;;;;;5086434;28;20051;-72
2022/09/15 06:01:24;;;;;;;10.13;1.80;;;13.60;99.90;;;;;;5089016;28;20036;-73
2022/09/15 06:03:50;;;;;;;9.02;2.85;;;13.40;99.90;;;;;;5089174;28;20142;-75
2022/09/15 06:06:16;;;;;;;8.18;1.88;;;13.70;99.90;;;;;;5088689;28;20036;-73
2022/09/15 06:08:45;;;;;;;8.45;1.10;;;13.70;99.90;;;;;;5086944;28;20450;-73
2022/09/15 06:11:16;;;;;;;4.60;1.10;;;14.00;99.90;;;;;;5088960;28;20137;-72
2022/09/15 06:13:43;;;;;;;5.00;0.82;;;13.70;99.90;;;;;;5087020;28;20050;-72
2022/09/15 06:16:10;;;;;;;4.60;1.05;;;13.80;99.90;;;;;;5087384;28;20040;-73
2022/09/15 06:18:37;;;;;;;9.52;1.20;;;13.80;99.90;;;;;;5070432;28;20054;-73
2022/09/15 06:21:09;;;;;;;6.32;0.98;;;14.10;99.90;;;;;;5086486;28;20051;-75
2022/09/15 06:23:35;;;;;;;9.90;1.52;;;13.80;99.90;;;;;;5089002;28;20320;-74
2022/09/15 06:26:05;;;;;;;5.43;0.75;;;13.80;99.90;;;;;;5087527;28;20044;-73
2022/09/15 06:28:31;;;;;;;7.40;0.98;;;13.80;99.90;;;;;;5086587;28;20040;-72
2022/09/15 06:30:57;;;;;;;4.88;1.02;;;13.80;99.90;;;;;;5086999;28;20124;-75
2022/09/15 06:33:22;;;;;;;9.98;1.50;;;13.90;99.90;;;;;;5087611;28;20115;-74
2022/09/15 06:35:48;;;;;;;8.65;0.80;;;13.90;99.90;;;;;;5120685;27;20051;-75
2022/09/15 06:38:13;;;;;;;4.65;0.73;;;14.00;99.90;;;;;;5121105;27;20047;-78
2022/09/15 06:40:39;;;;;;;7.78;0.80;;;14.10;99.90;;;;;;5088495;28;20040;-74
2022/09/15 06:43:05;;;;;;;10.07;1.50;;;15.30;99.90;;;;;;5086239;28;20070;-74
2022/09/15 06:45:30;;;;;;;8.35;1.05;;;14.10;99.90;;;;;;5087367;28;20097;-74
2022/09/15 06:47:56;;;;;;;10.52;1.42;;;14.70;99.90;;;;;;5087149;28;20130;-74
2022/09/15 06:50:21;;;;;;;5.65;0.68;;;14.20;99.90;;;;;;5120677;27;20070;-74
2022/09/15 06:52:47;;;;;;;4.80;0.73;;;14.10;99.90;;;;;;5063339;28;20084;-75
2022/09/15 06:55:12;;;;;;;7.60;0.80;;;14.20;99.90;;;;;;5064403;28;20032;-74
2022/09/15 06:57:38;;;;;;;11.43;1.58;;;14.20;99.90;;;;;;5074777;28;20484;-74
2022/09/15 07:00:05;;;;;;;9.32;2.35;;;14.60;99.90;;;;;;5084085;28;20036;-74
2022/09/15 07:02:31;;;;;;;6.35;1.38;;;14.20;99.90;;;;;;5087866;28;20048;-74
2022/09/15 07:04:56;;;;;;;3.75;0.77;;;14.20;99.90;;;;;;5090245;28;20044;-74
2022/09/15 07:07:22;;;;;;;3.17;0.90;;;14.30;99.90;;;;;;5090269;28;20115;-74
2022/09/15 07:09:48;;;;;;;4.50;1.02;;;14.20;99.90;;;;;;5071405;28;20567;-73
2022/09/15 07:12:13;;;;;;;7.20;1.10;;;15.40;99.90;;;;;;5089024;28;20040;-74
2022/09/15 07:14:39;;;;;;;12.00;1.33;;;14.30;99.90;;;;;;5090207;28;20048;-74
2022/09/15 07:17:04;;;;;;;8.23;1.10;;;14.30;99.90;;;;;;5089651;28;20036;-73
2022/09/15 07:19:30;;;;;;;4.85;1.15;;;16.10;99.90;;;;;;5073794;28;20062;-74
2022/09/15 07:21:56;;;;;;;7.35;1.00;;;14.40;99.90;;;;;;5075925;28;20487;-74
2022/09/15 07:24:21;;;;;;;4.28;0.70;;;14.40;99.90;;;;;;5075746;28;20390;-74
2022/09/15 07:26:47;;;;;;;8.82;1.40;;;14.50;99.90;;;;;;5094409;28;20044;-74
2022/09/15 07:29:12;;;;;;;8.48;0.63;;;14.50;99.90;;;;;;5094031;28;20046;-74
2022/09/15 07:31:38;;;;;;;6.95;0.75;;;15.90;99.90;;;;;;5092040;28;20548;-75
2022/09/15 07:34:05;;;;;;;7.45;1.10;;;14.60;99.90;;;;;;5094066;28;20059;-74
2022/09/15 07:36:31;;;;;;;5.88;0.70;;;14.60;99.90;;;;;;5075689;28;20056;-74
2022/09/15 07:38:57;;;;;;;7.57;1.15;;;14.70;99.90;;;;;;5092020;28;20101;-74
2022/09/15 07:41:26;;;;;;;8.98;0.77;;;14.80;99.90;;;;;;5093140;28;20036;-75
2022/09/15 07:43:56;;;;;;;3.47;0.55;;;14.70;99.90;;;;;;5092778;28;20040;-74
2022/09/15 07:46:24;;;;;;;5.18;0.85;;;14.80;99.90;;;;;;5075187;28;20046;-74
2022/09/15 07:48:51;;;;;;;2.38;0.40;;;14.80;99.90;;;;;;5094016;28;20040;-74
2022/09/15 07:51:18;;;;;;;4.07;0.60;;;16.10;99.90;;;;;;5092935;28;20101;-74
2022/09/15 07:53:46;;;;;;;3.17;0.50;;;14.90;99.90;;;;;;5092243;28;20409;-74
2022/09/15 07:56:12;;;;;;;7.93;4.05;;;15.90;99.90;;;;;;5075224;28;20145;-75
2022/09/15 07:58:37;;;;;;;3.47;0.70;;;15.00;99.90;;;;;;5093571;28;20047;-75
2022/09/15 08:01:05;;;;;;;4.00;0.95;;;16.10;99.90;;;;;;5089273;28;20039;-74
2022/09/15 08:03:32;;;;;;;4.93;0.70;;;15.00;99.90;;;;;;5084231;28;20048;-76
2022/09/15 08:05:59;;;;;;;4.32;0.55;;;15.00;99.90;;;;;;5091330;28;20039;-74
2022/09/15 08:08:32;;;;;;;5.11;0.79;;;15.00;99.90;;;;;;4665042;28;10002727;-75
2022/09/15 08:10:58;;;;;;;4.28;0.60;;;15.00;99.90;;;;;;5091214;28;20048;-74
2022/09/15 08:13:23;;;;;;;9.00;1.27;;;15.00;99.90;;;;;;5090561;28;20040;-75
2022/09/15 08:15:50;;;;;;;6.18;0.90;;;15.10;99.90;;;;;;5090237;28;20043;-75
2022/09/15 08:18:16;;;;;;;3.80;0.47;;;15.20;99.90;;;;;;5091455;28;20081;-75
2022/09/15 08:20:43;;;;;;;5.57;0.93;;;16.20;99.90;;;;;;5071936;28;20056;-75
2022/09/15 08:23:10;;;;;;;7.07;0.98;;;15.30;99.90;;;;;;5089424;28;20048;-75
2022/09/15 08:25:37;;;;;;;5.95;1.42;;;15.70;99.90;;;;;;5091326;28;20358;-75
2022/09/15 08:28:03;;;;;;;6.13;1.17;;;15.40;99.90;;;;;;5088894;28;20522;-74
2022/09/15 08:30:29;;;;;;;7.95;1.23;;;15.60;99.90;;;;;;5090432;28;20130;-74
2022/09/15 08:32:54;;;;;;;6.63;1.83;;;15.80;99.90;;;;;;5072106;28;20048;-74
2022/09/15 08:35:20;;;;;;;4.28;0.68;;;15.70;99.90;;;;;;5123382;27;20047;-75
2022/09/15 08:37:46;;;;;;;4.13;0.90;;;16.80;99.90;;;;;;5090838;28;20044;-75
2022/09/15 08:40:21;;;;;;;2.83;0.98;;;15.80;99.90;;;;;;5090491;28;20093;-75
2022/09/15 08:42:49;;;;;;;5.82;1.00;;;15.80;99.90;;;;;;5088552;28;20059;-75
2022/09/15 08:45:25;;;;;;;4.50;0.60;;;15.80;99.90;;;;;;5088673;28;20355;-74
2022/09/15 08:47:57;;;;;;;7.38;1.33;;;15.80;99.90;;;;;;5093131;28;20048;-73
2022/09/15 08:50:32;;;;;;;5.82;2.38;;;15.80;99.90;;;;;;5092446;28;20469;-77
2022/09/15 08:53:05;;;;;;;8.27;0.90;;;15.80;99.90;;;;;;5091358;28;20054;-76
2022/09/15 08:55:43;;;;;;;5.30;1.08;;;15.70;99.90;;;;;;5090628;28;20032;-77
2022/09/15 08:58:17;;;;;;;4.72;0.65;;;15.70;99.90;;;;;;5092108;28;20054;-77
2022/09/15 09:00:44;;;;;;;;;;;16.60;99.90;;;;;;5067489;28;20549;-76
2022/09/15 09:03:57;;;;;;;5.20;0.70;;;15.60;99.90;;;;;;5090126;28;19951;-76
2022/09/15 09:06:32;;;;;;;8.18;0.90;;;15.50;99.90;;;;;;5090015;28;20036;-77
2022/09/15 09:09:04;;;;;;;3.10;0.70;;;15.60;99.90;;;;;;5090636;28;20052;-73
2022/09/15 09:11:29;;;;;;;6.65;1.05;;;15.60;99.90;;;;;;5087905;28;20079;-76
2022/09/15 09:13:58;;;;;;;3.13;0.68;;;15.60;99.90;;;;;;5079726;28;20091;-76
2022/09/15 09:16:32;;;;;;;5.18;0.70;;;15.70;99.90;;;;;;5082027;28;20040;-72
2022/09/15 09:19:18;;;;;;;4.57;0.98;;;15.70;99.90;;;;;;5080976;28;20043;-76
2022/09/15 09:21:52;;;;;;;7.55;0.80;;;15.80;99.90;;;;;;5077681;28;20043;-78
2022/09/15 09:24:34;;;;;;;7.43;0.68;;;16.40;99.90;;;;;;5080981;28;20048;-78
2022/09/15 09:27:00;;;;;;;5.82;0.80;;;16.00;99.90;;;;;;5079207;28;20085;-74
2022/09/15 09:29:38;;;;;;;6.25;0.75;;;16.00;99.90;;;;;;5081606;28;20055;-75
2022/09/15 09:32:22;;;;;;;5.50;0.60;;;16.00;99.90;;;;;;5079545;28;20127;-74
2022/09/15 09:35:06;;;;;;;;;;;16.00;99.90;;;;;;5079384;28;20079;-76
2022/09/15 09:37:32;;;;;;;3.43;0.60;;;16.00;99.90;;;;;;5066006;28;19924;-76
2022/09/15 09:39:58;;;;;;;4.57;1.30;;;16.00;99.90;;;;;;5067494;28;20493;-74
2022/09/15 09:42:29;;;;;;;7.03;0.57;;;17.10;99.90;;;;;;5071318;28;20052;-72
2022/09/15 09:44:55;;;;;;;9.23;3.17;;;16.00;99.90;;;;;;5073036;28;20044;-76
2022/09/15 09:47:26;;;;;;;6.10;1.50;;;16.10;99.90;;;;;;5092156;28;20514;-74
2022/09/15 09:49:52;;;;;;;3.92;0.68;;;16.00;99.90;;;;;;5091484;28;20441;-76
2022/09/15 09:52:36;;;;;;;2.92;0.50;;;16.60;99.90;;;;;;5123977;27;20040;-78
2022/09/15 09:55:22;;;;;;;4.47;0.57;;;15.90;99.90;;;;;;5090240;28;20056;-78
2022/09/15 09:57:48;;;;;;;2.85;0.63;;;15.80;99.90;;;;;;5071219;28;20103;-76
2022/09/15 10:00:36;;;;;;;6.00;1.67;;;15.80;99.90;;;;;;5082644;28;20036;-78
2022/09/15 10:03:22;;;;;;;4.05;0.65;;;15.80;99.90;;;;;;5085612;28;20048;-76
2022/09/15 10:06:06;;;;;;;6.45;1.30;;;15.80;99.90;;;;;;5067837;28;20471;-76
2022/09/15 10:08:34;;;;;;;4.05;0.88;;;15.90;99.90;;;;;;5089026;28;20154;-74
2022/09/15 10:11:04;;;;;;;3.20;0.82;;;16.10;99.90;;;;;;5091165;28;20051;-76
2022/09/15 10:13:32;;;;;;;3.95;0.80;;;16.10;99.90;;;;;;5090329;28;20121;-77
2022/09/15 10:16:00;;;;;;;5.50;0.60;;;16.10;99.90;;;;;;5091009;28;20468;-78
2022/09/15 10:18:35;;;;;;;5.07;0.63;;;16.20;99.90;;;;;;5090578;28;20115;-77
2022/09/15 10:21:04;;;;;;;6.18;0.70;;;16.30;99.90;;;;;;5090062;28;20048;-76
2022/09/15 10:23:31;;;;;;;1.65;0.40;;;16.30;99.90;;;;;;5089713;28;20097;-74
2022/09/15 10:26:30;;;;;;;5.72;0.52;;;16.90;99.90;;;;;;5089729;28;20044;-74
2022/09/15 10:29:16;;;;;;;3.63;1.02;;;16.50;99.90;;;;;;5082779;28;20080;-78
2022/09/15 10:31:43;;;;;;;11.75;1.25;;;16.80;99.90;;;;;;5090860;28;20043;-78
2022/09/15 10:34:22;;;;;;;7.35;0.77;;;16.60;99.90;;;;;;5082052;28;20044;-73
2022/09/15 10:36:48;;;;;;;6.38;0.77;;;16.50;99.90;;;;;;5070787;28;20121;-74
2022/09/15 10:39:32;;;;;;;4.35;0.45;;;16.50;99.90;;;;;;5079136;28;20051;-72
2022/09/15 10:42:12;;;;;;;9.18;1.02;;;16.30;99.90;;;;;;5079880;28;20081;-72
2022/09/15 10:44:53;;;;;;;2.65;0.40;;;16.20;99.90;;;;;;5085084;28;20047;-72
2022/09/15 10:47:30;;;;;;;8.07;1.17;;;16.10;99.90;;;;;;5083217;28;20036;-72
2022/09/15 10:50:50;;;;;;;3.83;0.70;;;16.10;99.90;;;;;;5115296;27;20138;-72
2022/09/15 10:53:32;;;;;;;9.07;5.68;;;16.10;99.90;;;;;;5016694;28;20124;-73
2022/09/15 10:56:02;;;;;;;6.47;0.50;;;16.10;99.90;;;;;;5081070;28;20050;-73
2022/09/15 10:58:46;;;;;;;0.55;0.20;;;16.10;99.90;;;;;;5087748;28;20085;-72
2022/09/15 11:01:27;;;;;;;1.77;0.40;;;16.20;99.90;;;;;;5088389;28;20044;-73
2022/09/15 11:04:34;;;;;;;2.78;0.40;;;16.90;99.90;;;;;;5066903;28;20399;-73
2022/09/15 11:07:10;;;;;;;1.13;0.30;;;16.40;99.90;;;;;;5080276;28;20402;-72
2022/09/15 11:09:48;;;;;;;0.80;0.30;;;16.40;99.90;;;;;;5081209;28;20048;-73
2022/09/15 11:12:33;;;;;;;1.67;0.15;;;16.40;99.90;;;;;;5088032;28;20047;-73
2022/09/15 11:15:20;;;;;;;3.53;0.40;;;16.50;99.90;;;;;;5081325;28;20040;-72
2022/09/15 11:17:54;;;;;;;3.20;0.60;;;16.60;99.90;;;;;;5087366;28;20040;-72
2022/09/15 11:20:38;;;;;;;;;;;16.60;99.90;;;;;;5088680;28;20365;-73
2022/09/15 11:23:15;;;;;;;1.42;0.50;;;16.80;99.90;;;;;;5080098;28;19920;-72
2022/09/15 11:25:49;;;;;;;3.05;0.60;;;17.00;99.90;;;;;;5087742;28;20047;-72
2022/09/15 11:28:43;;;;;;;1.85;0.47;;;17.10;99.90;;;;;;5086605;28;20044;-73
2022/09/15 11:31:15;;;;;;;3.53;0.40;;;17.30;99.90;;;;;;5083282;28;20051;-72
2022/09/15 11:33:48;;;;;;;3.67;0.47;;;17.40;99.90;;;;;;5088036;28;20036;-72
2022/09/15 11:36:27;;;;;;;4.85;0.82;;;17.50;99.90;;;;;;5086667;28;20514;-72
2022/09/15 11:39:00;;;;;;;3.67;0.55;;;17.60;99.90;;;;;;5077871;28;20125;-73
2022/09/15 11:42:20;;;;;;;3.13;0.40;;;17.50;99.90;;;;;;5069814;28;20050;-73
2022/09/15 11:44:47;;;;;;;6.55;0.65;;;17.60;99.90;;;;;;4988116;28;20050;-73
2022/09/15 11:47:29;;;;;;;4.47;0.40;;;17.70;99.90;;;;;;5077938;28;20048;-73
2022/09/15 11:50:04;;;;;;;4.85;0.50;;;17.70;99.90;;;;;;5084621;28;20079;-73
2022/09/15 11:52:49;;;;;;;1.38;0.32;;;17.60;99.90;;;;;;5087133;28;20044;-73
2022/09/15 11:55:26;;;;;;;1.73;0.30;;;17.60;99.90;;;;;;5069946;28;20436;-73
2022/09/15 11:58:20;;;;;;;2.03;0.28;;;17.60;99.90;;;;;;5087368;28;20089;-73
2022/09/15 12:01:07;;;;;;;1.65;0.10;;;17.70;99.90;;;;;;5031491;28;20447;-73
2022/09/15 12:03:47;;;;;;;4.28;0.82;;;17.90;99.90;;;;;;5086092;28;20086;-73
2022/09/15 12:06:36;;;;;;;3.90;0.75;;;18.10;99.90;;;;;;5088708;28;20166;-73
2022/09/15 12:09:05;;;;;;;9.43;2.25;;;18.30;99.90;;;;;;5082502;28;20153;-73
2022/09/15 12:11:35;;;;;;;5.95;0.60;;;18.50;99.90;;;;;;5089873;28;20088;-72
2022/09/15 12:14:03;;;;;;;1.98;0.50;;;18.40;99.90;;;;;;5090493;28;20411;-72
2022/09/15 12:16:30;;;;;;;7.43;0.52;;;18.40;99.90;;;;;;5090015;28;20546;-73
2022/09/15 12:19:08;;;;;;;2.17;0.43;;;18.30;99.90;;;;;;5089976;28;20066;-73
2022/09/15 12:22:08;;;;;;;12.73;0.77;;;18.20;99.90;;;;;;5091274;28;20377;-73
2022/09/15 12:24:53;;;;;;;2.40;0.30;;;18.10;99.90;;;;;;5079018;28;20040;-72
2022/09/15 12:27:20;;;;;;;5.28;0.38;;;18.30;99.90;;;;;;5072350;28;20044;-72
2022/09/15 12:29:54;;;;;;;3.45;0.57;;;18.30;99.90;;;;;;5089715;28;20044;-72
2022/09/15 12:32:33;;;;;;;6.13;0.40;;;18.40;99.90;;;;;;5090067;28;20047;-72
2022/09/15 12:35:24;;;;;;;5.97;0.80;;;18.50;99.90;;;;;;5082075;28;20047;-72
2022/09/15 12:37:55;;;;;;;7.53;0.88;;;18.30;99.90;;;;;;5089367;28;20079;-72
2022/09/15 12:40:31;;;;;;;4.63;0.60;;;18.40;99.90;;;;;;5090817;28;20051;-71
2022/09/15 12:42:58;;;;;;;4.43;0.70;;;17.80;99.90;;;;;;5088906;28;20091;-72
2022/09/15 12:45:27;;;;;;;4.57;0.68;;;17.60;99.90;;;;;;5084726;28;20047;-72
2022/09/15 12:48:10;;;;;;;3.63;0.47;;;17.80;99.90;;;;;;5071535;28;20032;-72
2022/09/15 12:50:41;;;;;;;6.28;0.75;;;17.30;99.90;;;;;;5089639;28;20036;-72
2022/09/15 12:53:25;;;;;;;6.63;0.85;;;17.20;99.90;;;;;;5090637;28;20473;-73
2022/09/15 12:55:54;;;;;;;4.83;0.60;;;17.10;99.90;;;;;;5090225;28;20032;-72
2022/09/15 12:58:47;;;;;;;5.53;0.50;;;17.00;99.90;;;;;;5090807;28;20043;-71
2022/09/15 13:01:22;;;;;;;4.65;0.47;;;17.00;99.90;;;;;;5083091;28;20043;-72
2022/09/15 13:03:52;;;;;;;2.90;0.70;;;16.90;99.90;;;;;;5090132;28;20582;-72
2022/09/15 13:06:27;;;;;;;3.13;0.40;;;17.20;99.90;;;;;;5089235;28;20517;-72
2022/09/15 13:09:05;;;;;;;4.05;0.75;;;16.80;99.90;;;;;;5089132;28;20047;-72
2022/09/15 13:11:38;;;;;;;4.50;0.57;;;16.80;99.90;;;;;;5090303;28;20032;-72
2022/09/15 13:14:07;;;;;;;3.90;0.40;;;16.80;99.90;;;;;;5088580;28;20235;-72